Time;durP1;ratioP1;P1;durP2;ratioP2;P2;SDS_P1;SDS_P2;PMS_P1;PMS_P2;Temp;Humidity;BMP_temperature;BMP_pressure;BME280_temperature;BME280_humidity;BME280_pressure;Samples;Min_cycle;Max_cycle;Signal;HPM_P1;HPM_P2
2022/12/12 00:01:20;;;;;;;;;;;;;;;-2.87;99.02;95759.94;5094463;28;19958;-74
2022/12/12 00:03:46;;;;;;;;;;;;;;;-2.88;99.30;95754.00;5094252;28;20037;-75
2022/12/12 00:06:12;;;;;;;;;;;;;;;-2.88;98.86;95754.00;5093969;28;19958;-77
2022/12/12 00:08:38;;;;;;;;;;;;;;;-2.85;99.35;95760.59;5094225;28;20037;-75
2022/12/12 00:11:04;;;;;;;;;;;;;;;-2.81;98.80;95754.19;5093889;28;19947;-75
2022/12/12 00:13:30;;;;;;;;;;;;;;;-2.77;98.88;95752.94;5094342;28;19962;-75
2022/12/12 00:15:56;;;;;;;;;;;;;;;-2.78;97.86;95753.88;5094076;28;19952;-74
2022/12/12 00:18:22;;;;;;;;;;;;;;;-2.89;96.73;95749.81;5092844;28;19954;-74
2022/12/12 00:20:52;;;;;;;;;;;;;;;-3.05;96.97;95754.84;5093987;28;20031;-75
2022/12/12 00:23:18;;;;;;;;;;;;;;;-3.20;96.80;95754.56;5092475;28;19967;-75
2022/12/12 00:25:44;;;;;;;;;;;;;;;-3.23;97.73;95760.00;5092486;28;20342;-74
2022/12/12 00:28:10;;;;;;;;;;;;;;;-3.23;97.71;95759.19;5093827;28;19950;-74
2022/12/12 00:30:36;;;;;;;;;;;;;;;-3.21;97.75;95764.97;5092439;28;19960;-75
2022/12/12 00:33:02;;;;;;;;;;;;;;;-3.18;97.92;95759.56;5093830;28;19945;-75
2022/12/12 00:35:27;;;;;;;;;;;;;;;-3.17;97.44;95748.34;5092382;28;20375;-74
2022/12/12 00:37:53;;;;;;;;;;;;;;;-3.26;96.94;95757.72;5093592;28;20012;-74
2022/12/12 00:40:19;;;;;;;;;;;;;;;-3.31;97.49;95752.25;5096485;28;19992;-75
2022/12/12 00:42:45;;;;;;;;;;;;;;;-3.33;97.40;95747.28;5098239;28;20459;-75
2022/12/12 00:45:11;;;;;;;;;;;;;;;-3.32;97.23;95754.03;5097679;28;19956;-75
2022/12/12 00:47:37;;;;;;;;;;;;;;;-3.30;97.73;95759.81;5096585;28;20449;-75
2022/12/12 00:50:03;;;;;;;;;;;;;;;-3.29;97.04;95752.91;5097988;28;20029;-75
2022/12/12 00:52:29;;;;;;;;;;;;;;;-3.29;97.18;95755.47;5098313;28;19960;-75
2022/12/12 00:54:56;;;;;;;;;;;;;;;-3.27;97.18;95749.25;5096295;28;19949;-74
2022/12/12 00:57:22;;;;;;;;;;;;;;;-3.24;97.00;95753.25;5097975;28;19952;-75
2022/12/12 00:59:48;;;;;;;;;;;;;;;-3.29;96.62;95758.84;5097588;28;19960;-75
2022/12/12 01:02:13;;;;;;;;;;;;;;;-3.39;96.67;95762.44;5096923;28;20006;-75
2022/12/12 01:04:39;;;;;;;;;;;;;;;-3.48;96.89;95759.81;5097360;28;19953;-75
2022/12/12 01:07:05;;;;;;;;;;;;;;;-3.50;97.43;95760.91;5096748;28;19957;-74
2022/12/12 01:09:31;;;;;;;;;;;;;;;-3.50;96.97;95759.16;5097545;28;19957;-74
2022/12/12 01:11:57;;;;;;;;;;;;;;;-3.49;97.63;95757.38;5097520;28;19949;-74
2022/12/12 01:14:23;;;;;;;;;;;;;;;-3.49;97.35;95765.88;5097618;28;19998;-75
2022/12/12 01:16:49;;;;;;;;;;;;;;;-3.45;97.41;95766.41;5097205;28;19948;-75
2022/12/12 01:19:15;;;;;;;;;;;;;;;-3.40;97.24;95765.94;5097330;28;20009;-74
2022/12/12 01:21:41;;;;;;;;;;;;;;;-3.37;96.91;95770.78;5097444;28;19951;-75
2022/12/12 01:24:07;;;;;;;;;;;;;;;-3.34;96.76;95767.91;5095972;28;19945;-74
2022/12/12 01:26:33;;;;;;;;;;;;;;;-3.32;96.62;95769.41;5097069;28;19978;-75
2022/12/12 01:28:59;;;;;;;;;;;;;;;-3.31;96.77;95767.63;5096928;28;20036;-74
2022/12/12 01:31:24;;;;;;;;;;;;;;;-3.32;96.58;95774.53;5096991;28;20309;-74
2022/12/12 01:33:50;;;;;;;;;;;;;;;-3.33;96.76;95772.91;5096883;28;19953;-75
2022/12/12 01:36:18;;;;;;;;;;;;;;;-3.32;96.83;95778.84;5097029;28;19979;-75
2022/12/12 01:38:44;;;;;;;;;;;;;;;-3.30;97.21;95776.94;5096906;28;20392;-74
2022/12/12 01:41:10;;;;;;;;;;;;;;;-3.35;96.90;95772.25;5096685;28;19967;-74
2022/12/12 01:43:37;;;;;;;;;;;;;;;-3.40;97.17;95768.50;5096836;28;19946;-74
2022/12/12 01:46:02;;;;;;;;;;;;;;;-3.47;96.97;95781.91;5096599;28;20413;-74
2022/12/12 01:48:28;;;;;;;;;;;;;;;-3.48;97.44;95782.88;5095526;28;19996;-75
2022/12/12 01:50:56;;;;;;;;;;;;;;;-3.47;97.69;95781.91;5096116;28;19953;-75
2022/12/12 01:53:23;;;;;;;;;;;;;;;-3.44;97.26;95783.41;5078362;28;19953;-74
2022/12/12 01:55:49;;;;;;;;;;;;;;;-3.42;97.61;95783.22;5096712;28;19956;-75
2022/12/12 01:58:16;;;;;;;;;;;;;;;-3.43;97.38;95784.19;5096975;28;19955;-74
2022/12/12 02:00:42;;;;;;;;;;;;;;;-3.45;97.14;95780.97;5096714;28;19950;-75
2022/12/12 02:03:08;;;;;;;;;;;;;;;-3.48;97.42;95779.53;5096249;28;19952;-74
2022/12/12 02:05:47;;;;;;;;;;;;;;;-3.47;97.65;95787.03;5096245;28;19954;-74
2022/12/12 02:08:14;;;;;;;;;;;;;;;-3.44;97.53;95782.56;5083054;28;20402;-75
2022/12/12 02:10:42;;;;;;;;;;;;;;;-3.44;97.56;95780.84;5096060;28;19971;-74
2022/12/12 02:13:12;;;;;;;;;;;;;;;-3.41;97.24;95780.53;5096010;28;20075;-74
2022/12/12 02:15:41;;;;;;;;;;;;;;;-3.40;96.88;95787.28;5096136;28;19943;-75
2022/12/12 02:18:14;;;;;;;;;;;;;;;-3.40;96.72;95789.00;5096304;28;19949;-75
2022/12/12 02:20:40;;;;;;;;;;;;;;;-3.39;96.52;95791.44;5096135;28;19957;-74
2022/12/12 02:23:09;;;;;;;;;;;;;;;-3.37;96.52;95797.22;5096076;28;19944;-75
2022/12/12 02:25:41;;;;;;;;;;;;;;;-3.35;97.01;95800.44;5095939;28;19959;-75
2022/12/12 02:28:14;;;;;;;;;;;;;;;-3.36;97.07;95796.28;5096046;28;19944;-75
2022/12/12 02:31:03;;;;;;;;;;;;;;;-3.34;97.30;95796.13;5095829;28;19946;-75
2022/12/12 02:33:38;;;;;;;;;;;;;;;-3.33;97.16;95795.97;5095916;28;19948;-75
2022/12/12 02:36:11;;;;;;;;;;;;;;;-3.32;97.38;95795.03;5095590;28;19943;-75
2022/12/12 02:38:56;;;;;;;;;;;;;;;-3.32;97.07;95795.03;5095883;28;19953;-74
2022/12/12 02:41:25;;;;;;;;;;;;;;;-3.29;97.43;95796.50;5096161;28;20401;-74
2022/12/12 02:44:12;;;;;;;;;;;;;;;-3.30;97.43;95800.00;5095807;28;19949;-75
2022/12/12 02:46:50;;;;;;;;;;;;;;;-3.31;97.30;95800.97;5095593;28;19963;-75
2022/12/12 02:49:15;;;;;;;;;;;;;;;-3.33;96.94;95792.63;5095719;28;19949;-75
2022/12/12 02:51:43;;;;;;;;;;;;;;;-3.34;96.96;95799.50;5094185;28;20030;-74
2022/12/12 02:54:14;;;;;;;;;;;;;;;-3.36;97.41;95800.59;5095314;28;20391;-74
2022/12/12 02:56:42;;;;;;;;;;;;;;;-3.35;97.52;95802.22;5095416;28;19944;-74
2022/12/12 02:59:10;;;;;;;;;;;;;;;-3.41;97.57;95803.59;5095154;28;19951;-74
2022/12/12 03:01:44;;;;;;;;;;;;;;;-3.48;97.40;95803.38;5095251;28;19944;-74
2022/12/12 03:10:03;;;;;;;;;;;;;;;-3.65;97.69;95793.94;5095015;28;19953;-74
2022/12/12 03:12:37;;;;;;;;;;;;;;;-3.78;98.37;95793.47;5094768;28;19977;-73
2022/12/12 03:15:15;;;;;;;;;;;;;;;-3.79;98.93;95797.00;5095028;28;19941;-74
2022/12/12 03:17:49;;;;;;;;;;;;;;;-3.78;98.97;95796.03;5094152;28;19957;-73
2022/12/12 03:20:21;;;;;;;;;;;;;;;-3.83;98.42;95798.22;5094916;28;19947;-74
2022/12/12 03:22:59;;;;;;;;;;;;;;;-4.00;98.55;95795.50;5094932;28;20408;-74
2022/12/12 03:25:37;;;;;;;;;;;;;;;-4.15;99.77;95797.72;5095252;28;19948;-74
2022/12/12 03:28:13;;;;;;;;;;;;;;;-4.17;100.00;95791.94;5081934;28;20424;-74
2022/12/12 03:30:41;;;;;;;;;;;;;;;-4.17;100.00;95791.94;5094558;28;19946;-74
2022/12/12 03:33:13;;;;;;;;;;;;;;;-4.14;100.00;95791.66;5094674;28;19947;-74
2022/12/12 03:35:45;;;;;;;;;;;;;;;-4.09;100.00;95796.38;5094865;28;19944;-74
2022/12/12 03:38:11;;;;;;;;;;;;;;;-4.13;100.00;95800.16;5094567;28;19971;-74
2022/12/12 03:40:45;;;;;;;;;;;;;;;-4.13;100.00;95800.94;5094607;28;20058;-74
2022/12/12 03:43:13;;;;;;;;;;;;;;;-4.11;100.00;95799.06;5094727;28;19949;-74
2022/12/12 03:45:47;;;;;;;;;;;;;;;-4.12;100.00;95799.19;5093320;28;19953;-74
2022/12/12 03:48:16;;;;;;;;;;;;;;;-4.09;99.73;95796.38;5083771;28;20358;-74
2022/12/12 03:50:44;;;;;;;;;;;;;;;-4.10;100.00;95800.66;5082620;28;19956;-74
2022/12/12 03:53:14;;;;;;;;;;;;;;;-4.17;100.00;95796.28;5094558;28;19944;-74
2022/12/12 03:55:45;;;;;;;;;;;;;;;-4.26;100.00;95794.53;5094459;28;19943;-74
2022/12/12 03:58:23;;;;;;;;;;;;;;;-4.33;100.00;95802.78;5094469;28;19952;-74
2022/12/12 04:00:50;;;;;;;;;;;;;;;-4.39;100.00;95793.13;5094138;28;19955;-74
2022/12/12 04:03:22;;;;;;;;;;;;;;;-4.38;99.73;95799.84;5094299;28;19946;-74
2022/12/12 04:08:39;;;;;;;;;;;;;;;-4.21;100.00;95805.19;5094273;28;19975;-74
2022/12/12 04:14:25;;;;;;;;;;;;;;;-3.94;99.40;95804.38;5070338;28;19952;-74
2022/12/12 04:16:59;;;;;;;;;;;;;;;-3.89;98.65;95802.97;5094319;28;19961;-74
2022/12/12 04:25:17;;;;;;;;;;;;;;;-3.76;97.54;95812.91;5094048;28;19965;-74
2022/12/12 04:27:47;;;;;;;;;;;;;;;-3.71;97.67;95812.47;5093676;28;19960;-74
2022/12/12 04:30:14;;;;;;;;;;;;;;;-3.67;97.69;95812.00;5093925;28;19953;-74
2022/12/12 04:32:47;;;;;;;;;;;;;;;-3.68;95.99;95810.38;5093788;28;19946;-75
2022/12/12 04:35:16;;;;;;;;;;;;;;;-3.72;94.71;95813.38;5093838;28;19963;-75
2022/12/12 04:37:42;;;;;;;;;;;;;;;-3.77;95.52;95818.16;5093784;28;19980;-74
2022/12/12 04:40:11;;;;;;;;;;;;;;;-3.89;95.45;95822.66;5093055;28;20461;-74
2022/12/12 04:42:41;;;;;;;;;;;;;;;-4.05;94.82;95820.72;5093720;28;19953;-74
2022/12/12 04:45:19;;;;;;;;;;;;;;;-4.16;95.02;95821.72;5092492;28;19956;-74
2022/12/12 04:47:46;;;;;;;;;;;;;;;-4.21;95.72;95830.78;5093451;28;19974;-75
2022/12/12 04:50:13;;;;;;;;;;;;;;;-4.24;95.68;95829.31;5093879;28;20331;-74
2022/12/12 04:52:41;;;;;;;;;;;;;;;-4.31;95.66;95839.28;5093593;28;19940;-75
2022/12/12 04:55:12;;;;;;;;;;;;;;;-4.31;95.67;95831.59;5093446;28;20428;-74
2022/12/12 04:57:46;;;;;;;;;;;;;;;-4.26;96.07;95835.50;5093400;28;19971;-74
2022/12/12 05:00:12;;;;;;;;;;;;;;;-4.22;96.20;95831.72;5093640;28;19949;-75
2022/12/12 05:02:43;;;;;;;;;;;;;;;-4.19;96.60;95832.25;5093426;28;19945;-74
2022/12/12 05:05:11;;;;;;;;;;;;;;;-4.14;96.45;95835.16;5093909;28;20329;-74
2022/12/12 05:07:39;;;;;;;;;;;;;;;-4.08;96.46;95834.59;5093495;28;19958;-74
2022/12/12 05:10:15;;;;;;;;;;;;;;;-4.09;95.64;95829.66;5093348;28;19942;-74
2022/12/12 05:12:45;;;;;;;;;;;;;;;-4.08;95.74;95833.81;5092188;28;19948;-74
2022/12/12 05:15:12;;;;;;;;;;;;;;;-4.10;95.68;95836.50;5093874;28;19944;-74
2022/12/12 05:17:51;;;;;;;;;;;;;;;-4.11;95.32;95840.03;5093227;28;20423;-74
2022/12/12 05:20:17;;;;;;;;;;;;;;;-4.08;95.90;95844.84;5093592;28;19943;-74
2022/12/12 05:22:43;;;;;;;;;;;;;;;-4.06;95.74;95844.72;5093284;28;19957;-74
2022/12/12 05:25:09;;;;;;;;;;;;;;;-4.00;95.59;95856.16;5092932;28;20045;-74
2022/12/12 05:27:35;;;;;;;;;;;;;;;-3.99;95.63;95848.34;5095878;28;20064;-75
2022/12/12 05:30:01;;;;;;;;;;;;;;;-3.96;95.47;95847.25;5097082;28;19950;-74
2022/12/12 05:32:27;;;;;;;;;;;;;;;-4.01;93.77;95847.69;5096802;28;19945;-74
2022/12/12 05:34:52;;;;;;;;;;;;;;;-4.04;94.91;95849.69;5096982;28;19956;-74
2022/12/12 05:37:18;;;;;;;;;;;;;;;-4.08;94.24;95854.28;5097154;28;20074;-74
2022/12/12 05:39:44;;;;;;;;;;;;;;;-4.13;94.62;95856.47;5096932;28;19952;-74
2022/12/12 05:42:10;;;;;;;;;;;;;;;-4.15;95.09;95856.63;5096661;28;20366;-74
2022/12/12 05:44:36;;;;;;;;;;;;;;;-4.14;95.05;95860.78;5097114;28;19998;-74
2022/12/12 05:47:02;;;;;;;;;;;;;;;-4.10;95.74;95861.31;5096518;28;19960;-74
2022/12/12 05:49:28;;;;;;;;;;;;;;;-4.08;94.85;95855.09;5086779;28;19952;-74
2022/12/12 05:51:54;;;;;;;;;;;;;;;-4.09;94.79;95852.69;5096214;28;19948;-74
2022/12/12 05:54:19;;;;;;;;;;;;;;;-4.11;94.36;95859.72;5096574;28;19999;-75
2022/12/12 05:56:45;;;;;;;;;;;;;;;-4.16;93.89;95856.75;5096308;28;20057;-74
2022/12/12 05:59:11;;;;;;;;;;;;;;;-4.23;94.25;95859.06;5096474;28;19956;-74
2022/12/12 06:01:37;;;;;;;;;;;;;;;-4.25;95.11;95871.19;5096355;28;19954;-74
2022/12/12 06:04:03;;;;;;;;;;;;;;;-4.27;95.02;95883.34;5096358;28;20000;-74
2022/12/12 06:06:29;;;;;;;;;;;;;;;-4.24;95.72;95879.69;5096073;28;19970;-74
2022/12/12 06:08:55;;;;;;;;;;;;;;;-4.20;95.33;95881.84;5096122;28;19964;-74
2022/12/12 06:11:20;;;;;;;;;;;;;;;-4.15;95.20;95878.84;5096290;28;20034;-74
2022/12/12 06:13:46;;;;;;;;;;;;;;;-4.16;94.52;95872.94;5096071;28;19958;-74
2022/12/12 06:16:14;;;;;;;;;;;;;;;-4.19;94.86;95875.78;5096374;28;19990;-74
2022/12/12 06:18:40;;;;;;;;;;;;;;;-4.21;94.83;95880.22;5096222;28;19956;-74
2022/12/12 06:21:08;;;;;;;;;;;;;;;-4.19;95.28;95880.09;5096396;28;19953;-73
2022/12/12 06:23:35;;;;;;;;;;;;;;;-4.14;94.92;95875.34;5094599;28;20385;-74
2022/12/12 06:26:01;;;;;;;;;;;;;;;-4.13;95.07;95877.75;5096192;28;19961;-74
2022/12/12 06:28:27;;;;;;;;;;;;;;;-4.17;93.53;95868.75;5095659;28;19971;-74
2022/12/12 06:30:52;;;;;;;;;;;;;;;-4.37;93.11;95877.44;5094675;28;20001;-74
2022/12/12 06:33:18;;;;;;;;;;;;;;;-4.45;94.62;95883.25;5095825;28;19965;-74
2022/12/12 06:35:45;;;;;;;;;;;;;;;-4.46;94.92;95883.41;5095799;28;19948;-74
2022/12/12 06:38:11;;;;;;;;;;;;;;;-4.51;95.21;95889.72;5095435;28;19973;-74
2022/12/12 06:40:38;;;;;;;;;;;;;;;-4.46;95.38;95885.97;5096140;28;20001;-74
2022/12/12 06:43:04;;;;;;;;;;;;;;;-4.42;95.47;95887.28;5095704;28;19949;-74
2022/12/12 06:45:30;;;;;;;;;;;;;;;-4.38;95.05;95892.00;5095936;28;20018;-74
2022/12/12 06:47:56;;;;;;;;;;;;;;;-4.38;94.98;95889.44;5094271;28;19967;-74
2022/12/12 06:50:22;;;;;;;;;;;;;;;-4.37;95.00;95885.13;5095569;28;19985;-76
2022/12/12 06:52:48;;;;;;;;;;;;;;;-4.36;94.70;95889.31;5094404;28;19960;-75
2022/12/12 06:55:13;;;;;;;;;;;;;;;-4.35;95.21;95888.34;5095380;28;20005;-74
2022/12/12 06:57:39;;;;;;;;;;;;;;;-3.65;100.00;95882.78;5094182;28;20365;-74
2022/12/12 07:00:05;;;;;;;;;;;;;;;-3.17;100.00;95894.50;5095324;28;19980;-75
2022/12/12 07:02:31;;;;;;;;;;;;;;;-2.96;100.00;95895.03;5095570;28;19946;-73
2022/12/12 07:04:57;;;;;;;;;;;;;;;-2.28;100.00;95891.03;5095323;28;19955;-75
2022/12/12 07:07:23;;;;;;;;;;;;;;;-2.00;100.00;95896.00;5095005;28;20013;-74
2022/12/12 07:09:49;;;;;;;;;;;;;;;-2.38;99.95;95905.72;5094970;28;20031;-74
2022/12/12 07:12:15;;;;;;;;;;;;;;;-2.78;96.74;95909.63;5095625;28;20379;-74
2022/12/12 07:14:41;;;;;;;;;;;;;;;-3.08;94.42;95907.28;5094966;28;20011;-74
2022/12/12 07:17:07;;;;;;;;;;;;;;;-3.34;94.32;95919.19;5094908;28;19996;-74
2022/12/12 07:19:32;;;;;;;;;;;;;;;-3.60;93.96;95916.50;5095229;28;19962;-75
2022/12/12 07:21:58;;;;;;;;;;;;;;;-3.88;93.70;95916.50;5094663;28;19952;-74
2022/12/12 07:24:24;;;;;;;;;;;;;;;-4.10;95.31;95915.88;5094900;28;20355;-74
2022/12/12 07:26:50;;;;;;;;;;;;;;;-4.19;95.53;95921.06;5093452;28;20014;-74
2022/12/12 07:29:16;;;;;;;;;;;;;;;-4.23;96.44;95922.28;5093544;28;20039;-75
2022/12/12 07:31:42;;;;;;;;;;;;;;;-4.29;96.26;95926.97;5094968;28;20390;-74
2022/12/12 07:34:08;;;;;;;;;;;;;;;-4.38;96.67;95932.13;5094796;28;20428;-75
2022/12/12 07:36:34;;;;;;;;;;;;;;;-4.49;96.97;95936.47;5094398;28;19979;-74
2022/12/12 07:38:59;;;;;;;;;;;;;;;-4.55;97.82;95925.97;5094740;28;19979;-74
2022/12/12 07:41:25;;;;;;;;;;;;;;;-4.61;97.76;95936.75;5095180;28;19962;-74
2022/12/12 07:43:51;;;;;;;;;;;;;;;-4.70;97.85;95928.16;5094582;28;19949;-74
2022/12/12 07:46:19;;;;;;;;;;;;;;;-4.85;98.23;95937.97;5094901;28;19977;-74
2022/12/12 07:48:45;;;;;;;;;;;;;;;-4.86;99.47;95940.66;5093971;28;19961;-74
2022/12/12 07:51:11;;;;;;;;;;;;;;;-4.84;99.97;95939.59;5092618;28;19971;-74
2022/12/12 07:53:37;;;;;;;;;;;;;;;-4.72;100.00;95937.72;5094195;28;19951;-75
2022/12/12 07:56:03;;;;;;;;;;;;;;;-4.64;99.59;95939.56;5094243;28;20028;-74
2022/12/12 07:58:29;;;;;;;;;;;;;;;-4.70;98.24;95930.72;5094480;28;19979;-74
2022/12/12 08:00:55;;;;;;;;;;;;;;;-4.81;98.53;95939.28;5094054;28;19997;-74
2022/12/12 08:03:21;;;;;;;;;;;;;;;-4.71;100.00;95942.66;5093904;28;20004;-74
2022/12/12 08:05:47;;;;;;;;;;;;;;;-4.64;100.00;95944.69;5092854;28;20065;-74
2022/12/12 08:08:13;;;;;;;;;;;;;;;-4.66;100.00;95949.97;5092800;28;19972;-74
2022/12/12 08:10:39;;;;;;;;;;;;;;;-4.70;99.53;95951.16;5094016;28;19983;-74
2022/12/12 08:13:05;;;;;;;;;;;;;;;-4.69;99.29;95952.78;5094107;28;19954;-74
2022/12/12 08:15:31;;;;;;;;;;;;;;;-4.69;100.00;95948.44;5094136;28;20308;-74
2022/12/12 08:17:57;;;;;;;;;;;;;;;-4.67;99.19;95955.19;5094111;28;19945;-74
2022/12/12 08:20:23;;;;;;;;;;;;;;;-4.65;99.77;95949.00;5094206;28;19987;-74
2022/12/12 08:22:49;;;;;;;;;;;;;;;-4.60;99.89;95951.97;5094049;28;19987;-75
2022/12/12 08:25:15;;;;;;;;;;;;;;;-4.59;99.31;95953.56;5093956;28;20452;-74
2022/12/12 08:27:41;;;;;;;;;;;;;;;-4.65;98.87;95958.44;5093736;28;20050;-74
2022/12/12 08:30:07;;;;;;;;;;;;;;;-4.78;99.32;95961.25;5093997;28;19948;-74
2022/12/12 08:32:33;;;;;;;;;;;;;;;-4.84;100.00;95966.91;5093522;28;19952;-74
2022/12/12 08:34:59;;;;;;;;;;;;;;;-4.52;100.00;95961.50;5092464;28;19954;-74
2022/12/12 08:37:25;;;;;;;;;;;;;;;-4.38;100.00;95971.34;5093787;28;19970;-74
2022/12/12 08:39:51;;;;;;;;;;;;;;;-4.38;100.00;95962.84;5093471;28;20049;-74
2022/12/12 08:42:17;;;;;;;;;;;;;;;-4.44;99.12;95964.19;5093760;28;19950;-74
2022/12/12 08:44:43;;;;;;;;;;;;;;;-4.58;99.18;95964.63;5093938;28;19956;-74
2022/12/12 08:47:09;;;;;;;;;;;;;;;-4.72;99.05;95970.97;5093697;28;20380;-74
2022/12/12 08:49:35;;;;;;;;;;;;;;;-4.77;99.64;95971.34;5093600;28;19958;-74
2022/12/12 08:52:04;;;;;;;;;;;;;;;-4.73;100.00;95971.88;5092387;28;19958;-74
2022/12/12 08:54:30;;;;;;;;;;;;;;;-4.62;100.00;95971.78;5093386;28;19966;-74
2022/12/12 08:56:56;;;;;;;;;;;;;;;-4.51;99.79;95978.50;5093674;28;19967;-75
2022/12/12 08:59:22;;;;;;;;;;;;;;;-4.41;98.94;95979.31;5093606;28;19947;-74
2022/12/12 09:01:48;;;;;;;;;;;;;;;-4.37;98.25;95975.50;5095061;28;19952;-74
2022/12/12 09:04:14;;;;;;;;;;;;;;;-4.25;98.64;95983.03;5097888;28;19948;-74
2022/12/12 09:06:40;;;;;;;;;;;;;;;-4.20;97.82;95985.97;5096306;28;19947;-74
2022/12/12 09:09:06;;;;;;;;;;;;;;;-4.18;97.17;95984.09;5079456;28;19966;-74
2022/12/12 09:11:31;;;;;;;;;;;;;;;-4.24;96.39;95982.09;5097698;28;19947;-74
2022/12/12 09:13:57;;;;;;;;;;;;;;;-4.28;96.78;95997.72;5097509;28;19997;-75
2022/12/12 09:16:25;;;;;;;;;;;;;;;-4.36;96.47;95987.38;5097271;28;19951;-74
2022/12/12 09:18:51;;;;;;;;;;;;;;;-4.43;96.67;95993.16;5097294;28;19950;-74
2022/12/12 09:21:17;;;;;;;;;;;;;;;-4.44;96.75;95997.47;5097143;28;19986;-74
2022/12/12 09:23:43;;;;;;;;;;;;;;;-4.43;97.74;95998.28;5097369;28;19970;-74
2022/12/12 09:26:09;;;;;;;;;;;;;;;-4.49;97.52;96000.44;5096841;28;19950;-74
2022/12/12 09:28:35;;;;;;;;;;;;;;;-4.39;97.93;95994.50;5096997;28;19970;-74
2022/12/12 09:31:05;;;;;;;;;;;;;;;-4.31;96.48;95994.63;5097057;28;19950;-74
2022/12/12 09:33:31;;;;;;;;;;;;;;;-4.38;95.70;95991.81;5096846;28;19951;-74
2022/12/12 09:36:01;;;;;;;;;;;;;;;-4.46;95.79;95996.00;5096758;28;19950;-74
2022/12/12 09:38:27;;;;;;;;;;;;;;;-4.55;95.65;95995.06;5097569;28;19954;-74
2022/12/12 09:41:09;;;;;;;;;;;;;;;-4.61;95.60;95996.41;5097039;28;19945;-74
2022/12/12 09:43:56;;;;;;;;;;;;;;;-4.69;95.98;96001.38;5081410;28;19945;-74
2022/12/12 09:46:33;;;;;;;;;;;;;;;-4.66;96.26;96006.25;5096863;28;19943;-73
2022/12/12 09:49:04;;;;;;;;;;;;;;;-4.64;96.05;96000.97;5096730;28;19963;-73
2022/12/12 09:51:30;;;;;;;;;;;;;;;-4.65;96.03;96004.47;5098316;28;19949;-73
2022/12/12 09:53:56;;;;;;;;;;;;;;;-4.57;96.37;96004.63;5095330;28;19943;-74
2022/12/12 09:56:36;;;;;;;;;;;;;;;-4.36;100.00;95996.81;5096699;28;20449;-73
2022/12/12 09:59:10;;;;;;;;;;;;;;;-4.17;96.64;95994.22;5096123;28;19958;-73
2022/12/12 10:01:51;;;;;;;;;;;;;;;-4.06;95.02;95998.34;5098586;28;19944;-74
2022/12/12 10:04:35;;;;;;;;;;;;;;;-4.05;93.71;95992.31;5095620;28;19947;-74
2022/12/12 10:07:21;;;;;;;;;;;;;;;-4.10;92.71;95985.00;5121156;27;19949;-73
2022/12/12 10:10:00;;;;;;;;;;;;;;;-4.06;92.69;95990.69;5089626;28;19947;-73
2022/12/12 10:12:26;;;;;;;;;;;;;;;-4.03;92.70;95989.59;5098406;28;20417;-74
2022/12/12 10:15:00;;;;;;;;;;;;;;;-3.98;91.78;95990.78;5098617;28;19947;-73
2022/12/12 10:17:28;;;;;;;;;;;;;;;-3.87;91.33;95977.00;5098584;28;19951;-73
2022/12/12 10:19:57;;;;;;;;;;;;;;;-3.74;91.71;95980.09;5102897;28;20403;-72
2022/12/12 10:22:39;;;;;;;;;;;;;;;-3.59;89.92;95971.91;5102832;28;19942;-73
2022/12/12 10:25:10;;;;;;;;;;;;;;;-3.50;89.98;95971.09;5098222;28;19947;-74
2022/12/12 10:27:36;;;;;;;;;;;;;;;-3.26;89.51;95968.78;5096969;28;19964;-74
2022/12/12 10:30:12;;;;;;;;;;;;;;;-3.13;89.01;95971.03;5096200;28;19958;-73
2022/12/12 10:32:46;;;;;;;;;;;;;;;-3.10;87.85;95965.59;5078341;28;19951;-73
2022/12/12 10:35:22;;;;;;;;;;;;;;;-2.89;87.75;95960.19;5080475;28;19950;-73
2022/12/12 10:37:48;;;;;;;;;;;;;;;-2.79;87.06;95960.13;5096201;28;19980;-74
2022/12/12 10:40:33;;;;;;;;;;;;;;;-2.75;85.51;95952.94;5095881;28;19950;-74
2022/12/12 10:43:07;;;;;;;;;;;;;;;-2.70;87.11;95964.38;5096061;28;20397;-73
2022/12/12 10:45:48;;;;;;;;;;;;;;;-2.65;85.82;95953.66;5096189;28;19948;-74
2022/12/12 10:48:14;;;;;;;;;;;;;;;-2.56;84.75;95949.41;5095456;28;19967;-73
2022/12/12 10:50:44;;;;;;;;;;;;;;;-2.39;85.50;95952.88;5095951;28;19955;-73
2022/12/12 10:53:11;;;;;;;;;;;;;;;-2.31;81.74;95925.53;5094266;28;19948;-73
2022/12/12 10:55:49;;;;;;;;;;;;;;;-2.36;80.92;95932.88;5095435;28;19943;-73
2022/12/12 10:58:18;;;;;;;;;;;;;;;-2.32;81.86;95926.47;5095185;28;19959;-73
2022/12/12 11:00:45;;;;;;;;;;;;;;;-2.23;82.65;95932.47;5095508;28;19955;-73
2022/12/12 11:03:11;;;;;;;;;;;;;;;-2.12;80.27;95903.16;5095397;28;19964;-73
2022/12/12 11:05:38;;;;;;;;;;;;;;;-2.06;81.28;95921.34;5095233;28;20353;-73
2022/12/12 11:08:05;;;;;;;;;;;;;;;-2.02;80.35;95910.75;5095160;28;19965;-73
2022/12/12 11:10:32;;;;;;;;;;;;;;;-2.00;79.80;95901.94;5095312;28;19946;-73
2022/12/12 11:13:00;;;;;;;;;;;;;;;-1.88;82.26;95921.28;5094950;28;19941;-73
2022/12/12 11:15:37;;;;;;;;;;;;;;;-1.70;80.15;95902.38;5095183;28;20643;-73
2022/12/12 11:18:03;;;;;;;;;;;;;;;-1.69;80.32;95904.00;5095135;28;19972;-73
2022/12/12 11:20:29;;;;;;;;;;;;;;;-1.61;79.81;95904.06;5095338;28;19973;-73
2022/12/12 11:22:56;;;;;;;;;;;;;;;-1.52;80.50;95905.69;5094659;28;20383;-73
2022/12/12 11:25:23;;;;;;;;;;;;;;;-1.47;80.77;95906.03;5092927;28;20422;-74
2022/12/12 11:27:50;;;;;;;;;;;;;;;-1.35;81.93;95916.03;5094360;28;20370;-73
2022/12/12 11:30:22;;;;;;;;;;;;;;;-1.35;80.13;95905.72;5095013;28;19958;-73
2022/12/12 11:32:52;;;;;;;;;;;;;;;-1.32;76.67;95877.13;5094561;28;19967;-73
2022/12/12 11:35:33;;;;;;;;;;;;;;;-1.27;76.58;95887.75;5094621;28;20442;-73
2022/12/12 11:38:01;;;;;;;;;;;;;;;-1.31;77.19;95876.97;5094473;28;20437;-73
2022/12/12 11:40:28;;;;;;;;;;;;;;;-1.39;75.42;95864.09;5094462;28;19958;-73
2022/12/12 11:43:20;;;;;;;;;;;;;;;-1.58;77.05;95870.31;5093529;28;19945;-73
2022/12/12 11:45:58;;;;;;;;;;;;;;;-1.69;77.99;95894.53;5092623;28;19959;-73
2022/12/12 11:48:40;;;;;;;;;;;;;;;-1.80;75.75;95868.31;5094550;28;19963;-73
2022/12/12 11:51:06;;;;;;;;;;;;;;;-1.98;76.52;95874.31;5087925;28;20389;-73
2022/12/12 11:53:35;;;;;;;;;;;;;;;-2.07;77.14;95881.19;5095069;28;19953;-72
2022/12/12 11:56:10;;;;;;;;;;;;;;;-2.07;77.45;95880.41;5094622;28;19954;-73
2022/12/12 11:58:38;;;;;;;;;;;;;;;-2.12;77.61;95874.91;5094305;28;20430;-72
2022/12/12 12:01:21;;;;;;;;;;;;;;;-2.15;78.08;95877.78;5094032;28;20398;-73
2022/12/12 12:03:53;;;;;;;;;;;;;;;-2.17;79.32;95898.47;5094020;28;19955;-73
2022/12/12 12:06:48;;;;;;;;;;;;;;;-2.12;77.51;95867.19;5094036;28;19946;-73
2022/12/12 12:09:17;;;;;;;;;;;;;;;-2.03;77.31;95866.28;5056753;28;20453;-73
2022/12/12 12:11:43;;;;;;;;;;;;;;;-1.98;76.47;95856.34;5093961;28;19951;-72
2022/12/12 12:14:11;;;;;;;;;;;;;;;-1.75;80.49;95866.06;5093295;28;19950;-73
2022/12/12 12:16:45;;;;;;;;;;;;;;;-1.73;82.51;95889.84;5094096;28;20400;-73
2022/12/12 12:19:19;;;;;;;;;;;;;;;-1.81;78.97;95875.19;5093956;28;19946;-73
2022/12/12 12:21:51;;;;;;;;;;;;;;;-1.81;78.78;95864.91;5093886;28;19944;-73
2022/12/12 12:24:36;;;;;;;;;;;;;;;-1.78;79.04;95877.47;5092748;28;19956;-73
2022/12/12 12:27:04;;;;;;;;;;;;;;;-1.79;76.29;95857.06;5093122;28;19948;-73
2022/12/12 12:29:34;;;;;;;;;;;;;;;-1.82;77.20;95859.97;5092818;28;19980;-73
2022/12/12 12:32:03;;;;;;;;;;;;;;;-1.86;77.63;95864.59;5093735;28;19942;-73
2022/12/12 12:34:38;;;;;;;;;;;;;;;-1.85;77.85;95863.63;5093665;28;19959;-73
2022/12/12 12:37:03;;;;;;;;;;;;;;;-1.80;77.70;95861.41;5093702;28;20043;-72
2022/12/12 12:39:45;;;;;;;;;;;;;;;-1.78;75.48;95836.34;5093514;28;20059;-73
2022/12/12 12:42:22;;;;;;;;;;;;;;;-1.77;76.52;95842.28;5082029;28;20440;-73
2022/12/12 12:44:50;;;;;;;;;;;;;;;-1.72;77.40;95861.44;5093709;28;20307;-73
2022/12/12 12:47:22;;;;;;;;;;;;;;;-1.74;77.51;95860.78;5093461;28;19955;-73
2022/12/12 12:50:06;;;;;;;;;;;;;;;-1.70;76.07;95841.53;5094015;28;19969;-73
2022/12/12 12:52:38;;;;;;;;;;;;;;;-1.60;77.01;95854.22;5093711;28;19946;-73
2022/12/12 12:55:11;;;;;;;;;;;;;;;-1.63;78.08;95850.22;5093309;28;19953;-73
2022/12/12 12:57:41;;;;;;;;;;;;;;;-1.65;75.77;95835.91;5094336;28;19957;-73
2022/12/12 13:00:25;;;;;;;;;;;;;;;-1.66;77.11;95845.41;5093462;28;19945;-73
2022/12/12 13:03:01;;;;;;;;;;;;;;;-1.66;76.73;95837.69;5093652;28;19947;-73
2022/12/12 13:05:30;;;;;;;;;;;;;;;-1.72;72.95;95788.63;5093326;28;19976;-73
2022/12/12 13:08:15;;;;;;;;;;;;;;;-1.70;75.85;95820.13;5093740;28;19942;-73
2022/12/12 13:10:44;;;;;;;;;;;;;;;-1.68;74.59;95813.91;5093398;28;20329;-73
2022/12/12 13:13:25;;;;;;;;;;;;;;;-1.69;74.87;95819.19;5093868;28;19958;-73